sensor_id;sensor_type;location;lat;lon;timestamp;pressure;altitude;pressure_sealevel;temperature
65765;BMP180;52915;53.718;19.946;2023-07-09T00:05:00;100970.20;;;14.80
65765;BMP180;52915;53.718;19.946;2023-07-09T00:10:15;100977.80;;;14.90
65765;BMP180;52915;53.718;19.946;2023-07-09T00:15:20;100977.20;;;15.00
65765;BMP180;52915;53.718;19.946;2023-07-09T00:20:25;100981.40;;;15.00
65765;BMP180;52915;53.718;19.946;2023-07-09T00:25:29;100982.20;;;14.80
65765;BMP180;52915;53.718;19.946;2023-07-09T00:30:34;100986.20;;;14.60
65765;BMP180;52915;53.718;19.946;2023-07-09T00:35:38;100983.00;;;14.50
65765;BMP180;52915;53.718;19.946;2023-07-09T00:41:16;100984.40;;;14.50
65765;BMP180;52915;53.718;19.946;2023-07-09T00:51:38;100985.20;;;14.60
65765;BMP180;52915;53.718;19.946;2023-07-09T00:56:48;100982.20;;;14.60
65765;BMP180;52915;53.718;19.946;2023-07-09T01:01:56;100981.20;;;14.40
65765;BMP180;52915;53.718;19.946;2023-07-09T01:07:01;100974.20;;;14.30
65765;BMP180;52915;53.718;19.946;2023-07-09T01:12:08;100971.80;;;14.24
65765;BMP180;52915;53.718;19.946;2023-07-09T01:17:13;100978.40;;;14.30
65765;BMP180;52915;53.718;19.946;2023-07-09T01:22:20;100974.60;;;14.40
65765;BMP180;52915;53.718;19.946;2023-07-09T01:27:44;100979.20;;;14.30
65765;BMP180;52915;53.718;19.946;2023-07-09T01:32:51;100983.00;;;14.20
65765;BMP180;52915;53.718;19.946;2023-07-09T01:38:00;100983.20;;;14.10
65765;BMP180;52915;53.718;19.946;2023-07-09T01:43:06;100986.40;;;14.04
65765;BMP180;52915;53.718;19.946;2023-07-09T01:48:10;100985.20;;;14.10
65765;BMP180;52915;53.718;19.946;2023-07-09T01:53:25;100984.80;;;14.18
65765;BMP180;52915;53.718;19.946;2023-07-09T01:58:30;100990.80;;;14.10
65765;BMP180;52915;53.718;19.946;2023-07-09T02:03:35;100989.40;;;14.00
65765;BMP180;52915;53.718;19.946;2023-07-09T02:08:39;100985.20;;;13.90
65765;BMP180;52915;53.718;19.946;2023-07-09T02:13:44;100985.80;;;13.80
65765;BMP180;52915;53.718;19.946;2023-07-09T02:18:48;100989.40;;;13.90
65765;BMP180;52915;53.718;19.946;2023-07-09T02:23:53;100994.20;;;13.90
65765;BMP180;52915;53.718;19.946;2023-07-09T02:28:57;100999.20;;;13.90
65765;BMP180;52915;53.718;19.946;2023-07-09T02:34:01;100999.20;;;14.00
65765;BMP180;52915;53.718;19.946;2023-07-09T02:39:06;101002.40;;;14.00
65765;BMP180;52915;53.718;19.946;2023-07-09T02:44:11;101000.80;;;13.90
65765;BMP180;52915;53.718;19.946;2023-07-09T02:49:16;101007.80;;;13.80
65765;BMP180;52915;53.718;19.946;2023-07-09T02:54:20;101009.20;;;13.72
65765;BMP180;52915;53.718;19.946;2023-07-09T02:59:24;101012.80;;;13.80
65765;BMP180;52915;53.718;19.946;2023-07-09T03:04:31;101014.20;;;13.80
65765;BMP180;52915;53.718;19.946;2023-07-09T03:09:35;101013.00;;;13.90
65765;BMP180;52915;53.718;19.946;2023-07-09T03:14:39;101009.80;;;13.90
65765;BMP180;52915;53.718;19.946;2023-07-09T03:19:43;101018.60;;;13.80
65765;BMP180;52915;53.718;19.946;2023-07-09T03:24:47;101015.60;;;13.70
65765;BMP180;52915;53.718;19.946;2023-07-09T03:29:51;101013.80;;;13.70
65765;BMP180;52915;53.718;19.946;2023-07-09T03:34:55;101016.40;;;13.80
65765;BMP180;52915;53.718;19.946;2023-07-09T03:39:59;101016.00;;;13.92
65765;BMP180;52915;53.718;19.946;2023-07-09T03:45:05;101016.20;;;14.10
65765;BMP180;52915;53.718;19.946;2023-07-09T03:50:10;101025.80;;;14.22
65765;BMP180;52915;53.718;19.946;2023-07-09T03:55:15;101027.80;;;14.40
65765;BMP180;52915;53.718;19.946;2023-07-09T04:00:21;101033.60;;;14.70
65765;BMP180;52915;53.718;19.946;2023-07-09T04:05:27;101041.20;;;14.80
65765;BMP180;52915;53.718;19.946;2023-07-09T04:10:32;101045.20;;;14.90
65765;BMP180;52915;53.718;19.946;2023-07-09T04:15:36;101042.80;;;14.94
65765;BMP180;52915;53.718;19.946;2023-07-09T04:20:41;101050.20;;;15.12
65765;BMP180;52915;53.718;19.946;2023-07-09T04:25:44;101051.00;;;15.38
65765;BMP180;52915;53.718;19.946;2023-07-09T04:30:50;101054.00;;;15.60
65765;BMP180;52915;53.718;19.946;2023-07-09T04:35:55;101047.20;;;15.80
65765;BMP180;52915;53.718;19.946;2023-07-09T04:41:00;101049.60;;;16.00
65765;BMP180;52915;53.718;19.946;2023-07-09T04:46:04;101054.40;;;16.26
65765;BMP180;52915;53.718;19.946;2023-07-09T04:51:09;101058.40;;;16.52
65765;BMP180;52915;53.718;19.946;2023-07-09T04:56:13;101053.60;;;16.80
65765;BMP180;52915;53.718;19.946;2023-07-09T05:01:17;101046.40;;;17.00
65765;BMP180;52915;53.718;19.946;2023-07-09T05:06:22;101049.00;;;17.10
65765;BMP180;52915;53.718;19.946;2023-07-09T05:11:26;101043.40;;;17.20
65765;BMP180;52915;53.718;19.946;2023-07-09T05:16:30;101048.60;;;17.58
65765;BMP180;52915;53.718;19.946;2023-07-09T05:21:35;101038.40;;;17.90
65765;BMP180;52915;53.718;19.946;2023-07-09T05:26:39;101036.80;;;18.30
65765;BMP180;52915;53.718;19.946;2023-07-09T05:31:43;101049.20;;;18.60
65765;BMP180;52915;53.718;19.946;2023-07-09T05:36:48;101057.80;;;18.50
65765;BMP180;52915;53.718;19.946;2023-07-09T05:41:52;101061.80;;;18.60
65765;BMP180;52915;53.718;19.946;2023-07-09T05:46:56;101062.80;;;18.84
65765;BMP180;52915;53.718;19.946;2023-07-09T05:52:00;101065.60;;;19.20
65765;BMP180;52915;53.718;19.946;2023-07-09T05:57:06;101065.40;;;19.50
65765;BMP180;52915;53.718;19.946;2023-07-09T06:02:19;101060.60;;;19.88
65765;BMP180;52915;53.718;19.946;2023-07-09T06:07:24;101070.80;;;20.14
65765;BMP180;52915;53.718;19.946;2023-07-09T06:12:27;101060.00;;;20.24
65765;BMP180;52915;53.718;19.946;2023-07-09T06:17:32;101064.00;;;20.60
65765;BMP180;52915;53.718;19.946;2023-07-09T06:22:36;101060.40;;;21.04
65765;BMP180;52915;53.718;19.946;2023-07-09T06:27:40;101055.80;;;21.44
65765;BMP180;52915;53.718;19.946;2023-07-09T06:32:45;101058.00;;;21.70
65765;BMP180;52915;53.718;19.946;2023-07-09T06:37:50;101041.40;;;21.90
65765;BMP180;52915;53.718;19.946;2023-07-09T06:42:54;101045.60;;;22.00
65765;BMP180;52915;53.718;19.946;2023-07-09T06:48:00;101044.60;;;22.24
65765;BMP180;52915;53.718;19.946;2023-07-09T06:53:04;101042.40;;;22.40
65765;BMP180;52915;53.718;19.946;2023-07-09T06:58:09;101042.60;;;22.40
65765;BMP180;52915;53.718;19.946;2023-07-09T07:03:13;101044.80;;;22.40
65765;BMP180;52915;53.718;19.946;2023-07-09T07:08:20;101043.80;;;22.70
65765;BMP180;52915;53.718;19.946;2023-07-09T07:13:24;101045.20;;;23.08
65765;BMP180;52915;53.718;19.946;2023-07-09T07:18:33;101052.20;;;23.40
65765;BMP180;52915;53.718;19.946;2023-07-09T07:23:37;101055.20;;;23.50
65765;BMP180;52915;53.718;19.946;2023-07-09T07:28:41;101058.60;;;23.70
65765;BMP180;52915;53.718;19.946;2023-07-09T07:38:57;101060.40;;;24.72
65765;BMP180;52915;53.718;19.946;2023-07-09T07:44:02;101057.20;;;24.82
65765;BMP180;52915;53.718;19.946;2023-07-09T07:49:06;101054.40;;;25.20
65765;BMP180;52915;53.718;19.946;2023-07-09T07:54:12;101054.80;;;25.30
65765;BMP180;52915;53.718;19.946;2023-07-09T07:59:17;101051.20;;;25.30
65765;BMP180;52915;53.718;19.946;2023-07-09T08:04:22;101050.60;;;25.24
65765;BMP180;52915;53.718;19.946;2023-07-09T08:09:26;101048.40;;;25.36
65765;BMP180;52915;53.718;19.946;2023-07-09T08:14:30;101046.80;;;25.60
65765;BMP180;52915;53.718;19.946;2023-07-09T08:19:53;101044.20;;;26.00
65765;BMP180;52915;53.718;19.946;2023-07-09T08:24:58;101045.40;;;26.16
65765;BMP180;52915;53.718;19.946;2023-07-09T08:30:02;101039.40;;;26.46
65765;BMP180;52915;53.718;19.946;2023-07-09T08:35:08;101039.00;;;26.70
65765;BMP180;52915;53.718;19.946;2023-07-09T08:40:18;101035.20;;;26.98
65765;BMP180;52915;53.718;19.946;2023-07-09T08:51:17;101041.40;;;27.70
65765;BMP180;52915;53.718;19.946;2023-07-09T08:56:23;101030.40;;;27.40
65765;BMP180;52915;53.718;19.946;2023-07-09T09:01:52;101038.40;;;27.20
65765;BMP180;52915;53.718;19.946;2023-07-09T09:07:27;101035.20;;;27.02
65765;BMP180;52915;53.718;19.946;2023-07-09T09:23:21;101042.20;;;28.00
65765;BMP180;52915;53.718;19.946;2023-07-09T09:28:27;101046.60;;;28.20
65765;BMP180;52915;53.718;19.946;2023-07-09T09:33:47;101052.60;;;28.30
65765;BMP180;52915;53.718;19.946;2023-07-09T09:38:53;101049.20;;;28.40
65765;BMP180;52915;53.718;19.946;2023-07-09T09:43:57;101046.00;;;28.80
65765;BMP180;52915;53.718;19.946;2023-07-09T09:49:03;101037.00;;;29.00
65765;BMP180;52915;53.718;19.946;2023-07-09T09:54:19;101050.20;;;29.30
65765;BMP180;52915;53.718;19.946;2023-07-09T09:59:32;101041.60;;;29.40
65765;BMP180;52915;53.718;19.946;2023-07-09T10:04:37;101045.00;;;29.70
65765;BMP180;52915;53.718;19.946;2023-07-09T10:09:49;101038.40;;;29.90
65765;BMP180;52915;53.718;19.946;2023-07-09T10:15:25;101026.20;;;30.10
65765;BMP180;52915;53.718;19.946;2023-07-09T10:20:53;101035.20;;;30.30
65765;BMP180;52915;53.718;19.946;2023-07-09T10:43:01;101031.40;;;31.60
65765;BMP180;52915;53.718;19.946;2023-07-09T10:48:16;101026.40;;;31.76
65765;BMP180;52915;53.718;19.946;2023-07-09T10:54:15;101028.00;;;31.62
65765;BMP180;52915;53.718;19.946;2023-07-09T10:59:39;101028.00;;;31.76
65765;BMP180;52915;53.718;19.946;2023-07-09T11:05:06;101029.80;;;31.70
65765;BMP180;52915;53.718;19.946;2023-07-09T11:10:32;101026.80;;;31.70
65765;BMP180;52915;53.718;19.946;2023-07-09T11:15:46;101030.40;;;31.78
65765;BMP180;52915;53.718;19.946;2023-07-09T11:21:17;101028.80;;;32.00
65765;BMP180;52915;53.718;19.946;2023-07-09T11:26:32;101028.40;;;31.90
65765;BMP180;52915;53.718;19.946;2023-07-09T11:31:39;101033.00;;;31.84
65765;BMP180;52915;53.718;19.946;2023-07-09T11:41:59;101026.60;;;31.90
65765;BMP180;52915;53.718;19.946;2023-07-09T11:47:37;101026.40;;;32.10
65765;BMP180;52915;53.718;19.946;2023-07-09T11:53:04;101016.00;;;32.10
65765;BMP180;52915;53.718;19.946;2023-07-09T11:58:16;101020.80;;;32.22
65765;BMP180;52915;53.718;19.946;2023-07-09T12:03:28;101003.00;;;32.18
65765;BMP180;52915;53.718;19.946;2023-07-09T12:08:37;101012.40;;;31.88
65765;BMP180;52915;53.718;19.946;2023-07-09T12:13:42;101003.80;;;32.20
65765;BMP180;52915;53.718;19.946;2023-07-09T12:18:47;100997.40;;;32.10
65765;BMP180;52915;53.718;19.946;2023-07-09T12:23:54;100999.60;;;32.00
65765;BMP180;52915;53.718;19.946;2023-07-09T12:29:01;100993.00;;;32.22
65765;BMP180;52915;53.718;19.946;2023-07-09T12:34:12;100987.40;;;32.60
65765;BMP180;52915;53.718;19.946;2023-07-09T12:39:25;100985.20;;;33.08
65765;BMP180;52915;53.718;19.946;2023-07-09T12:44:36;100984.40;;;33.10
65765;BMP180;52915;53.718;19.946;2023-07-09T12:49:44;100993.60;;;33.12
65765;BMP180;52915;53.718;19.946;2023-07-09T12:55:01;101003.60;;;32.60
65765;BMP180;52915;53.718;19.946;2023-07-09T13:00:16;100990.20;;;32.40
65765;BMP180;52915;53.718;19.946;2023-07-09T13:05:24;100994.00;;;32.60
65765;BMP180;52915;53.718;19.946;2023-07-09T13:10:32;100998.20;;;
65765;BMP180;52915;53.718;19.946;2023-07-09T13:15:48;100984.40;;;32.32
65765;BMP180;52915;53.718;19.946;2023-07-09T13:20:56;100998.20;;;31.80
65765;BMP180;52915;53.718;19.946;2023-07-09T13:26:01;100972.80;;;31.60
65765;BMP180;52915;53.718;19.946;2023-07-09T13:31:19;100985.20;;;32.00
65765;BMP180;52915;53.718;19.946;2023-07-09T13:36:24;100972.60;;;32.04
65765;BMP180;52915;53.718;19.946;2023-07-09T13:41:29;100972.40;;;32.24
65765;BMP180;52915;53.718;19.946;2023-07-09T13:46:33;100982.20;;;32.50
65765;BMP180;52915;53.718;19.946;2023-07-09T13:51:38;100973.60;;;32.50
65765;BMP180;52915;53.718;19.946;2023-07-09T13:56:42;100971.60;;;32.10
65765;BMP180;52915;53.718;19.946;2023-07-09T14:01:50;100964.20;;;31.90
65765;BMP180;52915;53.718;19.946;2023-07-09T14:06:54;100963.60;;;32.00
65765;BMP180;52915;53.718;19.946;2023-07-09T14:11:59;100960.60;;;32.16
65765;BMP180;52915;53.718;19.946;2023-07-09T14:17:03;100965.60;;;32.00
65765;BMP180;52915;53.718;19.946;2023-07-09T14:22:36;100956.40;;;32.00
65765;BMP180;52915;53.718;19.946;2023-07-09T14:27:44;100959.60;;;32.20
65765;BMP180;52915;53.718;19.946;2023-07-09T14:32:50;100968.20;;;32.30
65765;BMP180;52915;53.718;19.946;2023-07-09T14:37:55;100956.80;;;32.20
65765;BMP180;52915;53.718;19.946;2023-07-09T14:43:01;100954.60;;;32.10
65765;BMP180;52915;53.718;19.946;2023-07-09T14:48:18;100952.40;;;32.20
65765;BMP180;52915;53.718;19.946;2023-07-09T14:53:27;100955.20;;;32.20
65765;BMP180;52915;53.718;19.946;2023-07-09T14:58:32;100959.00;;;32.40
65765;BMP180;52915;53.718;19.946;2023-07-09T15:03:42;100962.00;;;32.56
65765;BMP180;52915;53.718;19.946;2023-07-09T15:08:55;100954.80;;;32.60
65765;BMP180;52915;53.718;19.946;2023-07-09T15:14:11;100952.60;;;32.60
65765;BMP180;52915;53.718;19.946;2023-07-09T15:19:23;100955.80;;;32.60
65765;BMP180;52915;53.718;19.946;2023-07-09T15:24:38;100956.60;;;32.60
65765;BMP180;52915;53.718;19.946;2023-07-09T15:29:46;100955.40;;;33.18
65765;BMP180;52915;53.718;19.946;2023-07-09T15:34:51;100945.60;;;35.22
65765;BMP180;52915;53.718;19.946;2023-07-09T15:39:57;100953.80;;;36.50
65765;BMP180;52915;53.718;19.946;2023-07-09T15:45:02;100950.40;;;37.24
65765;BMP180;52915;53.718;19.946;2023-07-09T15:50:19;100947.80;;;37.80
65765;BMP180;52915;53.718;19.946;2023-07-09T15:55:27;100945.00;;;37.96
65765;BMP180;52915;53.718;19.946;2023-07-09T16:00:34;100948.60;;;38.20
65765;BMP180;52915;53.718;19.946;2023-07-09T16:05:39;100943.20;;;38.32
65765;BMP180;52915;53.718;19.946;2023-07-09T16:10:43;100940.60;;;38.40
65765;BMP180;52915;53.718;19.946;2023-07-09T16:15:49;100943.80;;;38.40
65765;BMP180;52915;53.718;19.946;2023-07-09T16:20:54;100947.00;;;38.40
65765;BMP180;52915;53.718;19.946;2023-07-09T16:25:59;100948.20;;;38.20
65765;BMP180;52915;53.718;19.946;2023-07-09T16:31:04;100947.40;;;37.74
65765;BMP180;52915;53.718;19.946;2023-07-09T16:36:18;100951.40;;;37.22
65765;BMP180;52915;53.718;19.946;2023-07-09T16:41:22;100950.40;;;36.70
65765;BMP180;52915;53.718;19.946;2023-07-09T16:46:26;100950.00;;;36.18
65765;BMP180;52915;53.718;19.946;2023-07-09T16:51:31;100950.60;;;35.80
65765;BMP180;52915;53.718;19.946;2023-07-09T16:56:35;100949.40;;;35.58
65765;BMP180;52915;53.718;19.946;2023-07-09T17:01:40;100950.80;;;35.40
65765;BMP180;52915;53.718;19.946;2023-07-09T17:06:45;100957.20;;;35.00
65765;BMP180;52915;53.718;19.946;2023-07-09T17:11:58;100961.20;;;34.60
65765;BMP180;52915;53.718;19.946;2023-07-09T17:17:03;100966.80;;;32.88
65765;BMP180;52915;53.718;19.946;2023-07-09T17:22:32;100962.80;;;31.44
65765;BMP180;52915;53.718;19.946;2023-07-09T17:27:37;100967.00;;;30.36
65765;BMP180;52915;53.718;19.946;2023-07-09T17:32:41;100966.20;;;29.52
65765;BMP180;52915;53.718;19.946;2023-07-09T17:37:54;100968.20;;;28.90
65765;BMP180;52915;53.718;19.946;2023-07-09T17:43:00;100968.80;;;28.32
65765;BMP180;52915;53.718;19.946;2023-07-09T17:48:24;100965.80;;;27.90
65765;BMP180;52915;53.718;19.946;2023-07-09T17:53:33;100961.20;;;27.50
65765;BMP180;52915;53.718;19.946;2023-07-09T17:58:38;100960.00;;;27.14
65765;BMP180;52915;53.718;19.946;2023-07-09T18:03:45;100962.80;;;26.80
65765;BMP180;52915;53.718;19.946;2023-07-09T18:08:50;100962.40;;;26.48
65765;BMP180;52915;53.718;19.946;2023-07-09T18:13:54;100959.80;;;26.10
65765;BMP180;52915;53.718;19.946;2023-07-09T18:18:59;100952.00;;;25.80
65765;BMP180;52915;53.718;19.946;2023-07-09T18:24:08;100950.40;;;25.50
65765;BMP180;52915;53.718;19.946;2023-07-09T18:29:34;100950.80;;;25.20
65765;BMP180;52915;53.718;19.946;2023-07-09T18:34:40;100940.60;;;25.00
65765;BMP180;52915;53.718;19.946;2023-07-09T18:39:44;100939.00;;;24.80
65765;BMP180;52915;53.718;19.946;2023-07-09T18:44:49;100944.00;;;24.60
65765;BMP180;52915;53.718;19.946;2023-07-09T18:49:54;100940.40;;;24.40
65765;BMP180;52915;53.718;19.946;2023-07-09T18:54:58;100944.40;;;24.18
65765;BMP180;52915;53.718;19.946;2023-07-09T19:00:03;100942.80;;;23.98
65765;BMP180;52915;53.718;19.946;2023-07-09T19:05:27;100940.40;;;23.70
65765;BMP180;52915;53.718;19.946;2023-07-09T19:10:41;100935.00;;;23.40
65765;BMP180;52915;53.718;19.946;2023-07-09T19:15:49;100938.00;;;23.28
65765;BMP180;52915;53.718;19.946;2023-07-09T19:20:56;100934.60;;;23.02
65765;BMP180;52915;53.718;19.946;2023-07-09T19:26:00;100930.20;;;22.90
65765;BMP180;52915;53.718;19.946;2023-07-09T19:31:05;100929.40;;;22.70
65765;BMP180;52915;53.718;19.946;2023-07-09T19:36:26;100930.80;;;22.50
65765;BMP180;52915;53.718;19.946;2023-07-09T19:41:36;100929.60;;;22.30
65765;BMP180;52915;53.718;19.946;2023-07-09T19:46:49;100934.60;;;22.00
65765;BMP180;52915;53.718;19.946;2023-07-09T19:51:54;100925.00;;;21.82
65765;BMP180;52915;53.718;19.946;2023-07-09T19:57:00;100924.20;;;21.70
65765;BMP180;52915;53.718;19.946;2023-07-09T20:02:30;100930.20;;;21.50
65765;BMP180;52915;53.718;19.946;2023-07-09T20:07:36;100935.40;;;21.30
65765;BMP180;52915;53.718;19.946;2023-07-09T20:12:48;100930.60;;;21.06
65765;BMP180;52915;53.718;19.946;2023-07-09T20:17:57;100921.00;;;20.90
65765;BMP180;52915;53.718;19.946;2023-07-09T20:23:03;100922.00;;;20.80
65765;BMP180;52915;53.718;19.946;2023-07-09T20:28:25;100933.60;;;20.70
65765;BMP180;52915;53.718;19.946;2023-07-09T20:33:29;100940.40;;;20.52
65765;BMP180;52915;53.718;19.946;2023-07-09T20:38:36;100944.80;;;20.40
65765;BMP180;52915;53.718;19.946;2023-07-09T20:43:40;100952.60;;;20.20
65765;BMP180;52915;53.718;19.946;2023-07-09T20:48:45;100954.00;;;20.00
65765;BMP180;52915;53.718;19.946;2023-07-09T20:53:50;100946.60;;;19.88
65765;BMP180;52915;53.718;19.946;2023-07-09T20:58:55;100944.00;;;19.70
65765;BMP180;52915;53.718;19.946;2023-07-09T21:04:00;100942.40;;;19.50
65765;BMP180;52915;53.718;19.946;2023-07-09T21:09:16;100943.20;;;19.30
65765;BMP180;52915;53.718;19.946;2023-07-09T21:14:20;100943.40;;;19.18
65765;BMP180;52915;53.718;19.946;2023-07-09T21:19:33;100939.80;;;19.00
65765;BMP180;52915;53.718;19.946;2023-07-09T21:24:39;100940.00;;;18.90
65765;BMP180;52915;53.718;19.946;2023-07-09T21:29:43;100943.80;;;18.80
65765;BMP180;52915;53.718;19.946;2023-07-09T21:34:48;100949.40;;;18.80
65765;BMP180;52915;53.718;19.946;2023-07-09T21:39:53;100950.00;;;18.70
65765;BMP180;52915;53.718;19.946;2023-07-09T21:44:58;100955.40;;;18.60
65765;BMP180;52915;53.718;19.946;2023-07-09T21:50:17;100957.60;;;18.50
65765;BMP180;52915;53.718;19.946;2023-07-09T21:55:25;100960.20;;;18.30
65765;BMP180;52915;53.718;19.946;2023-07-09T22:00:30;100969.20;;;18.10
65765;BMP180;52915;53.718;19.946;2023-07-09T22:05:50;100969.40;;;18.00
65765;BMP180;52915;53.718;19.946;2023-07-09T22:10:54;100972.20;;;17.90
65765;BMP180;52915;53.718;19.946;2023-07-09T22:15:58;100971.60;;;17.90
65765;BMP180;52915;53.718;19.946;2023-07-09T22:21:09;100971.00;;;17.90
65765;BMP180;52915;53.718;19.946;2023-07-09T22:26:14;100957.00;;;17.90
65765;BMP180;52915;53.718;19.946;2023-07-09T22:31:20;100959.40;;;17.90
65765;BMP180;52915;53.718;19.946;2023-07-09T22:36:24;100956.40;;;17.78
65765;BMP180;52915;53.718;19.946;2023-07-09T22:41:28;100959.40;;;17.60
65765;BMP180;52915;53.718;19.946;2023-07-09T22:46:34;100962.60;;;17.50
65765;BMP180;52915;53.718;19.946;2023-07-09T22:51:38;100962.60;;;17.40
65765;BMP180;52915;53.718;19.946;2023-07-09T22:56:42;100962.40;;;17.30
65765;BMP180;52915;53.718;19.946;2023-07-09T23:01:46;100966.60;;;17.20
65765;BMP180;52915;53.718;19.946;2023-07-09T23:06:53;100968.40;;;17.20
65765;BMP180;52915;53.718;19.946;2023-07-09T23:11:57;100970.80;;;17.20
65765;BMP180;52915;53.718;19.946;2023-07-09T23:17:09;100956.80;;;17.16
65765;BMP180;52915;53.718;19.946;2023-07-09T23:22:16;100946.00;;;17.10
65765;BMP180;52915;53.718;19.946;2023-07-09T23:27:20;100938.40;;;17.10
65765;BMP180;52915;53.718;19.946;2023-07-09T23:32:25;100932.40;;;17.04
65765;BMP180;52915;53.718;19.946;2023-07-09T23:37:29;100917.20;;;16.92
65765;BMP180;52915;53.718;19.946;2023-07-09T23:42:33;100914.80;;;16.80
65765;BMP180;52915;53.718;19.946;2023-07-09T23:47:37;100914.20;;;16.60
